sensor_id;sensor_type;location;lat;lon;timestamp;P1;durP1;ratioP1;P2;durP2;ratioP2
21758;SDS011;11041;50.854;20.580;2023-02-26T00:01:26;5.97;;;4.07;;
21758;SDS011;11041;50.854;20.580;2023-02-26T00:03:57;5.82;;;4.55;;
21758;SDS011;11041;50.854;20.580;2023-02-26T00:06:27;7.53;;;4.97;;
21758;SDS011;11041;50.854;20.580;2023-02-26T00:08:58;6.97;;;5.15;;
21758;SDS011;11041;50.854;20.580;2023-02-26T00:11:24;5.53;;;4.85;;
21758;SDS011;11041;50.854;20.580;2023-02-26T00:13:51;7.28;;;5.03;;
21758;SDS011;11041;50.854;20.580;2023-02-26T00:16:34;6.53;;;4.93;;
21758;SDS011;11041;50.854;20.580;2023-02-26T00:19:02;5.80;;;4.10;;
21758;SDS011;11041;50.854;20.580;2023-02-26T00:21:33;9.50;;;5.18;;
21758;SDS011;11041;50.854;20.580;2023-02-26T00:24:01;6.00;;;4.13;;
21758;SDS011;11041;50.854;20.580;2023-02-26T00:26:31;5.75;;;4.13;;
21758;SDS011;11041;50.854;20.580;2023-02-26T00:28:59;5.70;;;4.30;;
21758;SDS011;11041;50.854;20.580;2023-02-26T00:31:26;6.90;;;5.28;;
21758;SDS011;11041;50.854;20.580;2023-02-26T00:33:54;7.38;;;4.30;;
21758;SDS011;11041;50.854;20.580;2023-02-26T00:39:30;5.15;;;4.40;;
21758;SDS011;11041;50.854;20.580;2023-02-26T00:42:11;6.72;;;5.30;;
21758;SDS011;11041;50.854;20.580;2023-02-26T00:44:39;6.13;;;4.68;;
21758;SDS011;11041;50.854;20.580;2023-02-26T00:55:43;7.70;;;4.63;;
21758;SDS011;11041;50.854;20.580;2023-02-26T00:58:10;7.80;;;5.07;;
21758;SDS011;11041;50.854;20.580;2023-02-26T01:00:36;7.15;;;5.25;;
21758;SDS011;11041;50.854;20.580;2023-02-26T01:03:03;3.85;;;2.83;;
21758;SDS011;11041;50.854;20.580;2023-02-26T01:05:30;7.93;;;5.10;;
21758;SDS011;11041;50.854;20.580;2023-02-26T01:08:00;5.82;;;4.60;;
21758;SDS011;11041;50.854;20.580;2023-02-26T01:10:34;9.10;;;5.60;;
21758;SDS011;11041;50.854;20.580;2023-02-26T01:13:01;7.88;;;5.40;;
21758;SDS011;11041;50.854;20.580;2023-02-26T01:15:28;9.98;;;5.68;;
21758;SDS011;11041;50.854;20.580;2023-02-26T01:21:11;6.65;;;5.07;;
21758;SDS011;11041;50.854;20.580;2023-02-26T01:23:34;6.60;;;4.07;;
21758;SDS011;11041;50.854;20.580;2023-02-26T01:26:12;7.43;;;5.55;;
21758;SDS011;11041;50.854;20.580;2023-02-26T01:28:47;6.68;;;5.05;;
21758;SDS011;11041;50.854;20.580;2023-02-26T01:31:17;7.80;;;5.28;;
21758;SDS011;11041;50.854;20.580;2023-02-26T01:34:21;7.47;;;5.13;;
21758;SDS011;11041;50.854;20.580;2023-02-26T01:37:20;9.32;;;6.72;;
21758;SDS011;11041;50.854;20.580;2023-02-26T01:40:21;8.15;;;5.32;;
21758;SDS011;11041;50.854;20.580;2023-02-26T01:49:43;7.90;;;4.90;;
21758;SDS011;11041;50.854;20.580;2023-02-26T01:55:23;7.03;;;4.70;;
21758;SDS011;11041;50.854;20.580;2023-02-26T01:57:53;6.35;;;4.70;;
21758;SDS011;11041;50.854;20.580;2023-02-26T02:00:25;7.55;;;5.13;;
21758;SDS011;11041;50.854;20.580;2023-02-26T02:02:52;8.65;;;5.20;;
21758;SDS011;11041;50.854;20.580;2023-02-26T02:05:30;8.18;;;5.57;;
21758;SDS011;11041;50.854;20.580;2023-02-26T02:08:07;5.93;;;5.07;;
21758;SDS011;11041;50.854;20.580;2023-02-26T02:10:34;5.45;;;4.32;;
21758;SDS011;11041;50.854;20.580;2023-02-26T02:22:31;5.10;;;3.47;;
21758;SDS011;11041;50.854;20.580;2023-02-26T02:33:57;4.80;;;3.33;;
21758;SDS011;11041;50.854;20.580;2023-02-26T02:45:20;5.35;;;3.65;;
21758;SDS011;11041;50.854;20.580;2023-02-26T02:48:22;5.05;;;3.30;;
21758;SDS011;11041;50.854;20.580;2023-02-26T02:51:23;5.10;;;3.20;;
21758;SDS011;11041;50.854;20.580;2023-02-26T02:54:44;5.30;;;3.33;;
21758;SDS011;11041;50.854;20.580;2023-02-26T02:57:39;6.65;;;4.20;;
21758;SDS011;11041;50.854;20.580;2023-02-26T03:00:17;3.80;;;3.17;;
21758;SDS011;11041;50.854;20.580;2023-02-26T03:02:50;4.90;;;4.28;;
21758;SDS011;11041;50.854;20.580;2023-02-26T03:05:25;9.15;;;4.40;;
21758;SDS011;11041;50.854;20.580;2023-02-26T03:07:56;6.22;;;4.75;;
21758;SDS011;11041;50.854;20.580;2023-02-26T03:10:33;8.40;;;4.07;;
21758;SDS011;11041;50.854;20.580;2023-02-26T03:13:00;5.68;;;4.82;;
21758;SDS011;11041;50.854;20.580;2023-02-26T03:15:34;9.20;;;4.30;;
21758;SDS011;11041;50.854;20.580;2023-02-26T03:18:15;8.98;;;4.68;;
21758;SDS011;11041;50.854;20.580;2023-02-26T03:23:46;10.13;;;4.43;;
21758;SDS011;11041;50.854;20.580;2023-02-26T03:35:34;5.88;;;4.18;;
21758;SDS011;11041;50.854;20.580;2023-02-26T03:38:38;7.00;;;4.80;;
21758;SDS011;11041;50.854;20.580;2023-02-26T03:41:42;8.53;;;5.27;;
21758;SDS011;11041;50.854;20.580;2023-02-26T03:44:35;6.85;;;4.68;;
21758;SDS011;11041;50.854;20.580;2023-02-26T03:47:12;5.90;;;4.93;;
21758;SDS011;11041;50.854;20.580;2023-02-26T03:49:45;8.68;;;4.80;;
21758;SDS011;11041;50.854;20.580;2023-02-26T03:52:28;9.52;;;4.63;;
21758;SDS011;11041;50.854;20.580;2023-02-26T03:55:04;7.43;;;5.28;;
21758;SDS011;11041;50.854;20.580;2023-02-26T03:57:48;8.02;;;5.28;;
21758;SDS011;11041;50.854;20.580;2023-02-26T04:00:15;6.32;;;4.28;;
21758;SDS011;11041;50.854;20.580;2023-02-26T04:05:37;8.95;;;5.90;;
21758;SDS011;11041;50.854;20.580;2023-02-26T04:08:09;7.72;;;4.75;;
21758;SDS011;11041;50.854;20.580;2023-02-26T04:10:40;9.50;;;5.45;;
21758;SDS011;11041;50.854;20.580;2023-02-26T04:13:16;9.83;;;5.37;;
21758;SDS011;11041;50.854;20.580;2023-02-26T04:15:43;6.85;;;3.67;;
21758;SDS011;11041;50.854;20.580;2023-02-26T04:18:09;7.93;;;6.00;;
21758;SDS011;11041;50.854;20.580;2023-02-26T04:20:36;10.20;;;6.43;;
21758;SDS011;11041;50.854;20.580;2023-02-26T04:23:02;10.25;;;5.68;;
21758;SDS011;11041;50.854;20.580;2023-02-26T04:25:29;13.20;;;4.55;;
21758;SDS011;11041;50.854;20.580;2023-02-26T04:27:55;7.55;;;5.45;;
21758;SDS011;11041;50.854;20.580;2023-02-26T04:30:22;7.30;;;4.95;;
21758;SDS011;11041;50.854;20.580;2023-02-26T04:32:48;8.95;;;5.50;;
21758;SDS011;11041;50.854;20.580;2023-02-26T04:35:15;11.38;;;5.85;;
21758;SDS011;11041;50.854;20.580;2023-02-26T04:37:41;8.20;;;4.78;;
21758;SDS011;11041;50.854;20.580;2023-02-26T04:40:08;9.43;;;6.13;;
21758;SDS011;11041;50.854;20.580;2023-02-26T04:42:35;10.02;;;6.30;;
21758;SDS011;11041;50.854;20.580;2023-02-26T04:45:03;7.55;;;5.22;;
21758;SDS011;11041;50.854;20.580;2023-02-26T04:47:29;8.68;;;5.78;;
21758;SDS011;11041;50.854;20.580;2023-02-26T04:49:56;9.25;;;5.50;;
21758;SDS011;11041;50.854;20.580;2023-02-26T04:52:22;7.07;;;4.95;;
21758;SDS011;11041;50.854;20.580;2023-02-26T04:54:49;13.80;;;5.90;;
21758;SDS011;11041;50.854;20.580;2023-02-26T04:57:15;8.88;;;5.30;;
21758;SDS011;11041;50.854;20.580;2023-02-26T04:59:42;8.52;;;5.63;;
21758;SDS011;11041;50.854;20.580;2023-02-26T05:02:08;7.07;;;5.97;;
21758;SDS011;11041;50.854;20.580;2023-02-26T05:04:35;9.85;;;5.80;;
21758;SDS011;11041;50.854;20.580;2023-02-26T05:07:02;9.82;;;6.65;;
21758;SDS011;11041;50.854;20.580;2023-02-26T05:09:28;13.18;;;4.55;;
21758;SDS011;11041;50.854;20.580;2023-02-26T05:11:55;8.98;;;5.72;;
21758;SDS011;11041;50.854;20.580;2023-02-26T05:14:21;10.02;;;6.53;;
21758;SDS011;11041;50.854;20.580;2023-02-26T05:16:48;11.20;;;5.53;;
21758;SDS011;11041;50.854;20.580;2023-02-26T05:19:15;9.40;;;5.60;;
21758;SDS011;11041;50.854;20.580;2023-02-26T05:21:41;7.50;;;5.00;;
21758;SDS011;11041;50.854;20.580;2023-02-26T05:24:08;11.73;;;6.40;;
21758;SDS011;11041;50.854;20.580;2023-02-26T05:26:34;8.63;;;5.80;;
21758;SDS011;11041;50.854;20.580;2023-02-26T05:29:01;11.23;;;6.15;;
21758;SDS011;11041;50.854;20.580;2023-02-26T05:31:29;12.77;;;6.72;;
21758;SDS011;11041;50.854;20.580;2023-02-26T05:33:55;10.57;;;6.88;;
21758;SDS011;11041;50.854;20.580;2023-02-26T05:36:22;6.75;;;4.57;;
21758;SDS011;11041;50.854;20.580;2023-02-26T05:38:48;11.82;;;7.82;;
21758;SDS011;11041;50.854;20.580;2023-02-26T05:41:15;8.40;;;5.28;;
21758;SDS011;11041;50.854;20.580;2023-02-26T05:43:41;12.95;;;7.13;;
21758;SDS011;11041;50.854;20.580;2023-02-26T05:46:08;13.55;;;7.75;;
21758;SDS011;11041;50.854;20.580;2023-02-26T05:48:34;14.60;;;7.82;;
21758;SDS011;11041;50.854;20.580;2023-02-26T05:51:01;15.30;;;9.32;;
21758;SDS011;11041;50.854;20.580;2023-02-26T05:53:28;19.00;;;10.75;;
21758;SDS011;11041;50.854;20.580;2023-02-26T05:55:54;12.43;;;6.90;;
21758;SDS011;11041;50.854;20.580;2023-02-26T05:58:20;15.25;;;8.35;;
21758;SDS011;11041;50.854;20.580;2023-02-26T06:00:47;12.52;;;8.00;;
21758;SDS011;11041;50.854;20.580;2023-02-26T06:03:13;11.80;;;7.20;;
21758;SDS011;11041;50.854;20.580;2023-02-26T06:05:40;15.15;;;8.77;;
21758;SDS011;11041;50.854;20.580;2023-02-26T06:08:06;13.95;;;7.85;;
21758;SDS011;11041;50.854;20.580;2023-02-26T06:10:33;11.98;;;6.95;;
21758;SDS011;11041;50.854;20.580;2023-02-26T06:13:00;13.70;;;8.25;;
21758;SDS011;11041;50.854;20.580;2023-02-26T06:15:26;14.25;;;7.90;;
21758;SDS011;11041;50.854;20.580;2023-02-26T06:17:53;15.30;;;9.43;;
21758;SDS011;11041;50.854;20.580;2023-02-26T06:20:19;11.10;;;8.07;;
21758;SDS011;11041;50.854;20.580;2023-02-26T06:22:46;17.80;;;11.15;;
21758;SDS011;11041;50.854;20.580;2023-02-26T06:25:12;16.27;;;11.02;;
21758;SDS011;11041;50.854;20.580;2023-02-26T06:27:38;15.60;;;10.55;;
21758;SDS011;11041;50.854;20.580;2023-02-26T06:30:05;13.02;;;10.10;;
21758;SDS011;11041;50.854;20.580;2023-02-26T06:32:32;16.60;;;9.13;;
21758;SDS011;11041;50.854;20.580;2023-02-26T06:34:59;13.20;;;8.50;;
21758;SDS011;11041;50.854;20.580;2023-02-26T06:37:25;12.88;;;8.40;;
21758;SDS011;11041;50.854;20.580;2023-02-26T06:39:52;16.40;;;10.18;;
21758;SDS011;11041;50.854;20.580;2023-02-26T06:42:18;17.27;;;10.43;;
21758;SDS011;11041;50.854;20.580;2023-02-26T06:44:45;16.20;;;10.23;;
21758;SDS011;11041;50.854;20.580;2023-02-26T06:47:12;14.55;;;9.65;;
21758;SDS011;11041;50.854;20.580;2023-02-26T06:49:39;17.75;;;9.73;;
21758;SDS011;11041;50.854;20.580;2023-02-26T06:52:06;12.50;;;8.45;;
21758;SDS011;11041;50.854;20.580;2023-02-26T06:54:32;14.27;;;8.38;;
21758;SDS011;11041;50.854;20.580;2023-02-26T06:56:59;12.13;;;8.95;;
21758;SDS011;11041;50.854;20.580;2023-02-26T06:59:27;12.32;;;8.02;;
21758;SDS011;11041;50.854;20.580;2023-02-26T07:01:54;6.85;;;4.65;;
21758;SDS011;11041;50.854;20.580;2023-02-26T07:04:21;11.10;;;7.38;;
21758;SDS011;11041;50.854;20.580;2023-02-26T07:06:49;12.80;;;8.57;;
21758;SDS011;11041;50.854;20.580;2023-02-26T07:09:15;7.03;;;3.50;;
21758;SDS011;11041;50.854;20.580;2023-02-26T07:11:42;14.75;;;9.30;;
21758;SDS011;11041;50.854;20.580;2023-02-26T07:14:09;15.65;;;10.13;;
21758;SDS011;11041;50.854;20.580;2023-02-26T07:16:35;11.32;;;7.85;;
21758;SDS011;11041;50.854;20.580;2023-02-26T07:19:02;13.38;;;8.85;;
21758;SDS011;11041;50.854;20.580;2023-02-26T07:21:28;16.35;;;8.95;;
21758;SDS011;11041;50.854;20.580;2023-02-26T07:23:55;14.95;;;9.73;;
21758;SDS011;11041;50.854;20.580;2023-02-26T07:26:21;13.07;;;8.40;;
21758;SDS011;11041;50.854;20.580;2023-02-26T07:28:47;19.98;;;12.27;;
21758;SDS011;11041;50.854;20.580;2023-02-26T07:31:14;22.73;;;12.93;;
21758;SDS011;11041;50.854;20.580;2023-02-26T07:33:41;17.80;;;12.32;;
21758;SDS011;11041;50.854;20.580;2023-02-26T07:36:07;18.38;;;10.70;;
21758;SDS011;11041;50.854;20.580;2023-02-26T07:38:34;14.30;;;9.00;;
21758;SDS011;11041;50.854;20.580;2023-02-26T07:41:00;10.73;;;7.90;;
21758;SDS011;11041;50.854;20.580;2023-02-26T07:43:27;13.73;;;9.55;;
21758;SDS011;11041;50.854;20.580;2023-02-26T07:45:53;16.88;;;9.65;;
21758;SDS011;11041;50.854;20.580;2023-02-26T07:48:20;15.80;;;10.30;;
21758;SDS011;11041;50.854;20.580;2023-02-26T07:50:46;20.23;;;11.40;;
21758;SDS011;11041;50.854;20.580;2023-02-26T07:53:16;15.73;;;9.85;;
21758;SDS011;11041;50.854;20.580;2023-02-26T07:55:43;16.08;;;11.65;;
21758;SDS011;11041;50.854;20.580;2023-02-26T07:58:09;14.27;;;9.63;;
21758;SDS011;11041;50.854;20.580;2023-02-26T08:00:36;15.70;;;11.27;;
21758;SDS011;11041;50.854;20.580;2023-02-26T08:03:02;12.35;;;9.30;;
21758;SDS011;11041;50.854;20.580;2023-02-26T08:05:29;23.20;;;13.03;;
21758;SDS011;11041;50.854;20.580;2023-02-26T08:07:55;13.73;;;9.23;;
21758;SDS011;11041;50.854;20.580;2023-02-26T08:10:22;22.92;;;11.93;;
21758;SDS011;11041;50.854;20.580;2023-02-26T08:12:49;24.70;;;12.68;;
21758;SDS011;11041;50.854;20.580;2023-02-26T08:15:15;31.55;;;15.25;;
21758;SDS011;11041;50.854;20.580;2023-02-26T08:17:42;26.70;;;14.07;;
21758;SDS011;11041;50.854;20.580;2023-02-26T08:20:08;12.68;;;8.30;;
21758;SDS011;11041;50.854;20.580;2023-02-26T08:22:36;26.75;;;15.02;;
21758;SDS011;11041;50.854;20.580;2023-02-26T08:25:03;24.70;;;13.02;;
21758;SDS011;11041;50.854;20.580;2023-02-26T08:27:30;19.75;;;12.55;;
21758;SDS011;11041;50.854;20.580;2023-02-26T08:29:57;13.77;;;8.40;;
21758;SDS011;11041;50.854;20.580;2023-02-26T08:32:23;26.38;;;13.05;;
21758;SDS011;11041;50.854;20.580;2023-02-26T08:34:51;17.55;;;10.57;;
21758;SDS011;11041;50.854;20.580;2023-02-26T08:37:18;18.90;;;10.90;;
21758;SDS011;11041;50.854;20.580;2023-02-26T08:39:47;10.43;;;8.47;;
21758;SDS011;11041;50.854;20.580;2023-02-26T08:42:13;12.35;;;9.05;;
21758;SDS011;11041;50.854;20.580;2023-02-26T08:44:42;8.38;;;6.25;;
21758;SDS011;11041;50.854;20.580;2023-02-26T08:47:08;12.20;;;8.00;;
21758;SDS011;11041;50.854;20.580;2023-02-26T08:49:35;14.15;;;10.98;;
21758;SDS011;11041;50.854;20.580;2023-02-26T08:52:01;10.10;;;8.32;;
21758;SDS011;11041;50.854;20.580;2023-02-26T08:54:28;13.93;;;9.70;;
21758;SDS011;11041;50.854;20.580;2023-02-26T08:56:55;16.55;;;12.95;;
21758;SDS011;11041;50.854;20.580;2023-02-26T08:59:25;14.73;;;12.80;;
21758;SDS011;11041;50.854;20.580;2023-02-26T09:01:51;9.25;;;8.23;;
21758;SDS011;11041;50.854;20.580;2023-02-26T09:04:18;10.17;;;7.77;;
21758;SDS011;11041;50.854;20.580;2023-02-26T09:06:44;9.95;;;7.82;;
21758;SDS011;11041;50.854;20.580;2023-02-26T09:09:11;10.35;;;7.22;;
21758;SDS011;11041;50.854;20.580;2023-02-26T09:11:37;9.93;;;7.45;;
21758;SDS011;11041;50.854;20.580;2023-02-26T09:14:05;9.25;;;5.97;;
21758;SDS011;11041;50.854;20.580;2023-02-26T09:16:31;8.80;;;7.23;;
21758;SDS011;11041;50.854;20.580;2023-02-26T09:19:02;13.57;;;8.80;;
21758;SDS011;11041;50.854;20.580;2023-02-26T09:21:31;14.35;;;9.73;;
21758;SDS011;11041;50.854;20.580;2023-02-26T09:23:58;12.90;;;9.77;;
21758;SDS011;11041;50.854;20.580;2023-02-26T09:26:24;7.90;;;6.35;;
21758;SDS011;11041;50.854;20.580;2023-02-26T09:28:51;9.77;;;7.93;;
21758;SDS011;11041;50.854;20.580;2023-02-26T09:31:17;12.60;;;7.65;;
21758;SDS011;11041;50.854;20.580;2023-02-26T09:33:44;9.52;;;7.20;;
21758;SDS011;11041;50.854;20.580;2023-02-26T09:36:10;10.95;;;7.35;;
21758;SDS011;11041;50.854;20.580;2023-02-26T09:38:37;9.90;;;7.40;;
21758;SDS011;11041;50.854;20.580;2023-02-26T09:41:05;7.80;;;7.00;;
21758;SDS011;11041;50.854;20.580;2023-02-26T09:43:54;9.73;;;7.40;;
21758;SDS011;11041;50.854;20.580;2023-02-26T09:49:46;10.55;;;8.52;;
21758;SDS011;11041;50.854;20.580;2023-02-26T10:01:05;12.25;;;8.65;;
21758;SDS011;11041;50.854;20.580;2023-02-26T10:12:21;17.52;;;9.98;;
21758;SDS011;11041;50.854;20.580;2023-02-26T10:18:22;17.80;;;8.37;;
21758;SDS011;11041;50.854;20.580;2023-02-26T10:23:55;14.07;;;8.80;;
21758;SDS011;11041;50.854;20.580;2023-02-26T10:26:34;10.63;;;7.50;;
21758;SDS011;11041;50.854;20.580;2023-02-26T10:34:56;9.57;;;5.63;;
21758;SDS011;11041;50.854;20.580;2023-02-26T10:37:46;8.20;;;6.50;;
21758;SDS011;11041;50.854;20.580;2023-02-26T10:40:27;9.20;;;6.70;;
21758;SDS011;11041;50.854;20.580;2023-02-26T10:49:23;7.18;;;4.88;;
21758;SDS011;11041;50.854;20.580;2023-02-26T10:52:24;7.28;;;4.32;;
21758;SDS011;11041;50.854;20.580;2023-02-26T10:54:59;20.03;;;9.50;;
21758;SDS011;11041;50.854;20.580;2023-02-26T10:57:37;4.80;;;4.10;;
21758;SDS011;11041;50.854;20.580;2023-02-26T11:00:16;5.60;;;4.45;;
21758;SDS011;11041;50.854;20.580;2023-02-26T11:02:47;8.23;;;5.05;;
21758;SDS011;11041;50.854;20.580;2023-02-26T11:07:54;16.10;;;10.38;;
21758;SDS011;11041;50.854;20.580;2023-02-26T11:10:51;7.40;;;4.63;;
21758;SDS011;11041;50.854;20.580;2023-02-26T11:13:25;6.72;;;3.55;;
21758;SDS011;11041;50.854;20.580;2023-02-26T11:15:55;3.70;;;2.70;;
21758;SDS011;11041;50.854;20.580;2023-02-26T11:18:29;5.93;;;3.80;;
21758;SDS011;11041;50.854;20.580;2023-02-26T11:21:18;8.88;;;5.65;;
21758;SDS011;11041;50.854;20.580;2023-02-26T11:24:06;8.73;;;4.63;;
21758;SDS011;11041;50.854;20.580;2023-02-26T11:26:58;5.00;;;3.42;;
21758;SDS011;11041;50.854;20.580;2023-02-26T11:29:39;4.63;;;3.33;;
21758;SDS011;11041;50.854;20.580;2023-02-26T11:32:20;5.15;;;3.30;;
21758;SDS011;11041;50.854;20.580;2023-02-26T11:34:54;4.63;;;3.10;;
21758;SDS011;11041;50.854;20.580;2023-02-26T11:37:27;5.55;;;3.60;;
21758;SDS011;11041;50.854;20.580;2023-02-26T11:40:06;6.18;;;3.63;;
21758;SDS011;11041;50.854;20.580;2023-02-26T11:42:51;7.18;;;4.03;;
21758;SDS011;11041;50.854;20.580;2023-02-26T11:45:25;6.82;;;4.00;;
21758;SDS011;11041;50.854;20.580;2023-02-26T11:47:56;3.25;;;2.85;;
21758;SDS011;11041;50.854;20.580;2023-02-26T11:50:30;3.80;;;2.63;;
21758;SDS011;11041;50.854;20.580;2023-02-26T11:53:53;4.30;;;3.15;;
21758;SDS011;11041;50.854;20.580;2023-02-26T11:56:14;5.13;;;4.10;;
21758;SDS011;11041;50.854;20.580;2023-02-26T11:58:50;5.10;;;3.38;;
21758;SDS011;11041;50.854;20.580;2023-02-26T12:01:20;5.00;;;2.80;;
21758;SDS011;11041;50.854;20.580;2023-02-26T12:03:52;4.80;;;3.30;;
21758;SDS011;11041;50.854;20.580;2023-02-26T12:06:25;7.88;;;4.85;;
21758;SDS011;11041;50.854;20.580;2023-02-26T12:08:52;8.43;;;4.00;;
21758;SDS011;11041;50.854;20.580;2023-02-26T12:35:24;16.65;;;9.30;;
21758;SDS011;11041;50.854;20.580;2023-02-26T12:40:42;11.68;;;7.43;;
21758;SDS011;11041;50.854;20.580;2023-02-26T13:04:06;5.43;;;2.90;;
21758;SDS011;11041;50.854;20.580;2023-02-26T13:10:14;4.70;;;3.28;;
21758;SDS011;11041;50.854;20.580;2023-02-26T13:22:09;10.33;;;6.00;;
21758;SDS011;11041;50.854;20.580;2023-02-26T13:24:45;5.53;;;3.67;;
21758;SDS011;11041;50.854;20.580;2023-02-26T13:27:37;9.25;;;5.13;;
21758;SDS011;11041;50.854;20.580;2023-02-26T13:33:03;8.65;;;4.40;;
21758;SDS011;11041;50.854;20.580;2023-02-26T13:35:33;8.20;;;4.60;;
21758;SDS011;11041;50.854;20.580;2023-02-26T13:38:42;15.07;;;7.70;;
21758;SDS011;11041;50.854;20.580;2023-02-26T13:44:50;4.85;;;3.35;;
21758;SDS011;11041;50.854;20.580;2023-02-26T13:51:10;5.87;;;3.70;;
21758;SDS011;11041;50.854;20.580;2023-02-26T14:01:56;9.10;;;5.25;;
21758;SDS011;11041;50.854;20.580;2023-02-26T14:04:28;22.10;;;9.85;;
21758;SDS011;11041;50.854;20.580;2023-02-26T14:07:16;10.83;;;5.50;;
21758;SDS011;11041;50.854;20.580;2023-02-26T14:10:25;24.63;;;11.68;;
21758;SDS011;11041;50.854;20.580;2023-02-26T14:13:15;136.13;;;49.47;;
21758;SDS011;11041;50.854;20.580;2023-02-26T14:15:59;88.43;;;34.47;;
21758;SDS011;11041;50.854;20.580;2023-02-26T14:19:03;112.30;;;42.53;;
21758;SDS011;11041;50.854;20.580;2023-02-26T14:21:47;73.60;;;27.77;;
21758;SDS011;11041;50.854;20.580;2023-02-26T14:24:20;24.10;;;12.32;;
21758;SDS011;11041;50.854;20.580;2023-02-26T14:32:31;7.05;;;4.10;;
21758;SDS011;11041;50.854;20.580;2023-02-26T14:35:40;7.95;;;4.35;;
21758;SDS011;11041;50.854;20.580;2023-02-26T14:38:32;12.30;;;6.70;;
21758;SDS011;11041;50.854;20.580;2023-02-26T14:43:49;8.00;;;5.63;;
21758;SDS011;11041;50.854;20.580;2023-02-26T14:46:31;47.45;;;18.45;;
21758;SDS011;11041;50.854;20.580;2023-02-26T14:49:00;27.02;;;11.45;;
21758;SDS011;11041;50.854;20.580;2023-02-26T14:54:38;12.38;;;5.45;;
21758;SDS011;11041;50.854;20.580;2023-02-26T15:09:22;10.63;;;5.22;;
21758;SDS011;11041;50.854;20.580;2023-02-26T15:18:01;23.42;;;13.55;;
21758;SDS011;11041;50.854;20.580;2023-02-26T15:21:16;20.45;;;10.45;;
21758;SDS011;11041;50.854;20.580;2023-02-26T15:24:01;22.13;;;11.43;;
21758;SDS011;11041;50.854;20.580;2023-02-26T15:26:30;24.00;;;15.15;;
21758;SDS011;11041;50.854;20.580;2023-02-26T15:29:03;44.92;;;19.45;;
21758;SDS011;11041;50.854;20.580;2023-02-26T15:31:36;24.43;;;16.00;;
21758;SDS011;11041;50.854;20.580;2023-02-26T15:34:10;15.70;;;11.40;;
21758;SDS011;11041;50.854;20.580;2023-02-26T15:36:44;19.67;;;10.68;;
21758;SDS011;11041;50.854;20.580;2023-02-26T15:39:17;25.83;;;16.40;;
21758;SDS011;11041;50.854;20.580;2023-02-26T15:41:45;27.97;;;16.27;;
21758;SDS011;11041;50.854;20.580;2023-02-26T15:44:17;23.05;;;14.15;;
21758;SDS011;11041;50.854;20.580;2023-02-26T15:46:52;42.17;;;21.60;;
21758;SDS011;11041;50.854;20.580;2023-02-26T15:49:26;29.33;;;14.50;;
21758;SDS011;11041;50.854;20.580;2023-02-26T15:52:11;24.08;;;12.10;;
21758;SDS011;11041;50.854;20.580;2023-02-26T15:54:56;23.33;;;11.57;;
21758;SDS011;11041;50.854;20.580;2023-02-26T15:57:30;30.75;;;13.73;;
21758;SDS011;11041;50.854;20.580;2023-02-26T16:00:04;28.90;;;17.65;;
21758;SDS011;11041;50.854;20.580;2023-02-26T16:02:41;30.02;;;20.20;;
21758;SDS011;11041;50.854;20.580;2023-02-26T16:05:11;54.28;;;26.48;;
21758;SDS011;11041;50.854;20.580;2023-02-26T16:07:41;26.67;;;13.60;;
21758;SDS011;11041;50.854;20.580;2023-02-26T16:10:15;26.92;;;13.95;;
21758;SDS011;11041;50.854;20.580;2023-02-26T16:12:53;18.90;;;9.82;;
21758;SDS011;11041;50.854;20.580;2023-02-26T16:15:36;19.98;;;10.05;;
21758;SDS011;11041;50.854;20.580;2023-02-26T16:18:12;25.25;;;14.05;;
21758;SDS011;11041;50.854;20.580;2023-02-26T16:20:47;14.75;;;8.43;;
21758;SDS011;11041;50.854;20.580;2023-02-26T16:23:23;13.35;;;7.68;;
21758;SDS011;11041;50.854;20.580;2023-02-26T16:26:23;17.50;;;9.93;;
21758;SDS011;11041;50.854;20.580;2023-02-26T16:29:11;23.08;;;10.77;;
21758;SDS011;11041;50.854;20.580;2023-02-26T16:31:53;27.40;;;13.10;;
21758;SDS011;11041;50.854;20.580;2023-02-26T16:37:16;32.70;;;16.40;;
21758;SDS011;11041;50.854;20.580;2023-02-26T16:42:44;153.60;;;58.05;;
21758;SDS011;11041;50.854;20.580;2023-02-26T16:45:53;130.45;;;47.30;;
21758;SDS011;11041;50.854;20.580;2023-02-26T16:48:27;68.75;;;28.35;;
21758;SDS011;11041;50.854;20.580;2023-02-26T16:51:06;120.65;;;45.90;;
21758;SDS011;11041;50.854;20.580;2023-02-26T16:56:37;77.07;;;31.60;;
21758;SDS011;11041;50.854;20.580;2023-02-26T16:59:10;100.00;;;42.70;;
21758;SDS011;11041;50.854;20.580;2023-02-26T17:01:52;115.47;;;48.55;;
21758;SDS011;11041;50.854;20.580;2023-02-26T17:04:29;148.67;;;60.87;;
21758;SDS011;11041;50.854;20.580;2023-02-26T17:07:01;113.15;;;48.47;;
21758;SDS011;11041;50.854;20.580;2023-02-26T17:09:40;72.97;;;36.92;;
21758;SDS011;11041;50.854;20.580;2023-02-26T17:12:20;44.83;;;21.52;;
21758;SDS011;11041;50.854;20.580;2023-02-26T17:14:57;34.25;;;17.73;;
21758;SDS011;11041;50.854;20.580;2023-02-26T17:17:26;26.15;;;13.35;;
21758;SDS011;11041;50.854;20.580;2023-02-26T17:19:53;23.38;;;13.18;;
21758;SDS011;11041;50.854;20.580;2023-02-26T17:22:23;25.88;;;13.77;;
21758;SDS011;11041;50.854;20.580;2023-02-26T17:24:53;24.33;;;11.65;;
21758;SDS011;11041;50.854;20.580;2023-02-26T17:27:25;21.00;;;11.13;;
21758;SDS011;11041;50.854;20.580;2023-02-26T17:29:58;21.15;;;11.40;;
21758;SDS011;11041;50.854;20.580;2023-02-26T17:32:29;21.58;;;9.50;;
21758;SDS011;11041;50.854;20.580;2023-02-26T17:34:56;22.83;;;10.75;;
21758;SDS011;11041;50.854;20.580;2023-02-26T17:37:24;20.10;;;9.38;;
21758;SDS011;11041;50.854;20.580;2023-02-26T17:40:01;21.30;;;9.45;;
21758;SDS011;11041;50.854;20.580;2023-02-26T17:42:29;21.08;;;11.45;;
21758;SDS011;11041;50.854;20.580;2023-02-26T17:44:56;18.55;;;9.70;;
21758;SDS011;11041;50.854;20.580;2023-02-26T17:47:23;17.73;;;9.18;;
21758;SDS011;11041;50.854;20.580;2023-02-26T17:49:52;22.48;;;11.30;;
21758;SDS011;11041;50.854;20.580;2023-02-26T17:52:19;22.10;;;11.32;;
21758;SDS011;11041;50.854;20.580;2023-02-26T17:54:45;24.40;;;12.10;;
21758;SDS011;11041;50.854;20.580;2023-02-26T17:57:16;23.33;;;11.30;;
21758;SDS011;11041;50.854;20.580;2023-02-26T17:59:48;22.30;;;10.25;;
21758;SDS011;11041;50.854;20.580;2023-02-26T18:02:17;17.55;;;8.90;;
21758;SDS011;11041;50.854;20.580;2023-02-26T18:04:51;17.35;;;9.20;;
21758;SDS011;11041;50.854;20.580;2023-02-26T18:07:19;25.00;;;11.73;;
21758;SDS011;11041;50.854;20.580;2023-02-26T18:09:47;40.88;;;17.00;;
21758;SDS011;11041;50.854;20.580;2023-02-26T18:12:15;33.30;;;14.68;;
21758;SDS011;11041;50.854;20.580;2023-02-26T18:14:46;59.22;;;23.20;;
21758;SDS011;11041;50.854;20.580;2023-02-26T18:17:17;60.05;;;25.85;;
21758;SDS011;11041;50.854;20.580;2023-02-26T18:19:52;82.03;;;31.65;;
21758;SDS011;11041;50.854;20.580;2023-02-26T18:22:20;74.97;;;28.80;;
21758;SDS011;11041;50.854;20.580;2023-02-26T18:24:52;74.28;;;28.23;;
21758;SDS011;11041;50.854;20.580;2023-02-26T18:27:20;88.65;;;36.88;;
21758;SDS011;11041;50.854;20.580;2023-02-26T18:29:49;92.47;;;39.63;;
21758;SDS011;11041;50.854;20.580;2023-02-26T18:32:17;62.90;;;29.08;;
21758;SDS011;11041;50.854;20.580;2023-02-26T18:34:49;99.68;;;48.67;;
21758;SDS011;11041;50.854;20.580;2023-02-26T18:37:17;75.30;;;37.50;;
21758;SDS011;11041;50.854;20.580;2023-02-26T18:39:50;34.80;;;18.17;;
21758;SDS011;11041;50.854;20.580;2023-02-26T18:42:24;27.75;;;14.95;;